createdAt,value
2022-11-20T00:00:09.804Z,90.23
2022-11-20T00:01:09.786Z,90.12
2022-11-20T00:02:09.849Z,90.12
2022-11-20T00:03:09.785Z,89.81
2022-11-20T00:04:09.768Z,89.60
2022-11-20T00:05:09.737Z,89.60
2022-11-20T00:06:09.726Z,89.92
2022-11-20T00:07:09.798Z,89.70
2022-11-20T00:08:09.802Z,89.60
2022-11-20T00:09:09.696Z,88.98
2022-11-20T00:10:09.755Z,88.67
2022-11-20T00:11:15.298Z,88.67
2022-11-20T00:12:10.686Z,88.87
2022-11-20T00:13:09.649Z,88.87
2022-11-20T00:14:09.652Z,88.87
2022-11-20T00:15:09.623Z,88.98
2022-11-20T00:16:09.631Z,88.98
2022-11-20T00:17:09.596Z,88.67
2022-11-20T00:18:09.595Z,88.67
2022-11-20T00:19:09.587Z,88.46
2022-11-20T00:20:09.678Z,88.67
2022-11-20T00:21:09.566Z,88.77
2022-11-20T00:22:09.627Z,88.77
2022-11-20T00:23:09.547Z,88.87
2022-11-20T00:24:09.635Z,88.98
2022-11-20T00:25:09.569Z,89.18
2022-11-20T00:26:09.571Z,89.08
2022-11-20T00:27:09.502Z,89.08
2022-11-20T00:28:09.527Z,88.77
2022-11-20T00:29:09.497Z,88.87
2022-11-20T00:30:13.664Z,88.77
2022-11-20T00:31:10.459Z,88.46
2022-11-20T00:32:09.468Z,88.04
2022-11-20T00:33:09.430Z,88.04
2022-11-20T00:34:09.473Z,88.15
2022-11-20T00:35:09.407Z,88.04
2022-11-20T00:36:09.466Z,88.25
2022-11-20T00:37:09.389Z,88.35
2022-11-20T00:38:09.618Z,88.56
2022-11-20T00:39:09.358Z,88.56
2022-11-20T00:40:09.357Z,88.87
2022-11-20T00:41:09.370Z,89.29
2022-11-20T00:42:09.343Z,89.39
2022-11-20T00:43:09.335Z,89.39
2022-11-20T00:44:09.338Z,88.87
2022-11-20T00:45:09.307Z,88.56
2022-11-20T00:46:09.339Z,88.46
2022-11-20T00:47:09.280Z,88.35
2022-11-20T00:48:09.280Z,88.35
2022-11-20T00:49:09.269Z,88.25
2022-11-20T00:50:09.520Z,88.35
2022-11-20T00:51:09.251Z,88.56
2022-11-20T00:52:09.320Z,88.67
2022-11-20T00:53:09.222Z,88.87
2022-11-20T00:54:09.199Z,88.67
2022-11-20T00:55:09.199Z,88.35
2022-11-20T00:56:09.333Z,88.46
2022-11-20T00:57:09.179Z,88.77
2022-11-20T00:58:14.168Z,88.46
2022-11-20T00:59:10.157Z,88.56
2022-11-20T01:00:09.280Z,88.67
2022-11-20T01:01:09.201Z,88.87
2022-11-20T01:02:09.225Z,88.77
2022-11-20T01:03:09.110Z,88.46
2022-11-20T01:04:09.102Z,88.56
2022-11-20T01:05:09.090Z,88.87
2022-11-20T01:06:09.419Z,88.87
2022-11-20T01:07:09.096Z,88.77
2022-11-20T01:08:09.142Z,88.46
2022-11-20T01:09:09.040Z,88.04
2022-11-20T01:10:09.031Z,87.94
2022-11-20T01:11:09.031Z,88.46
2022-11-20T01:12:09.100Z,88.67
2022-11-20T01:13:09.000Z,88.77
2022-11-20T01:14:08.995Z,88.87
2022-11-20T01:15:08.979Z,88.87
2022-11-20T01:16:09.060Z,89.08
2022-11-20T01:17:08.985Z,88.98
2022-11-20T01:18:09.017Z,88.56
2022-11-20T01:19:08.942Z,88.56
2022-11-20T01:20:08.935Z,88.77
2022-11-20T01:21:08.921Z,88.87
2022-11-20T01:22:08.941Z,88.77
2022-11-20T01:23:08.901Z,88.77
2022-11-20T01:24:09.062Z,88.77
2022-11-20T01:25:08.872Z,89.08
2022-11-20T01:26:08.972Z,88.87
2022-11-20T01:27:08.841Z,88.67
2022-11-20T01:28:08.866Z,89.18
2022-11-20T01:29:08.872Z,88.98
2022-11-20T01:30:08.823Z,88.77
2022-11-20T01:31:08.832Z,88.67
2022-11-20T01:32:08.836Z,88.77
2022-11-20T01:33:08.782Z,88.77
2022-11-20T01:34:08.860Z,88.67
2022-11-20T01:35:08.764Z,88.67
2022-11-20T01:36:08.809Z,88.46
2022-11-20T01:37:08.760Z,88.35
2022-11-20T01:38:08.751Z,88.04
2022-11-20T01:39:08.733Z,88.25
2022-11-20T01:40:08.764Z,88.56
2022-11-20T01:41:08.704Z,89.18
2022-11-20T01:42:10.310Z,89.29
2022-11-20T01:43:08.684Z,88.87
2022-11-20T01:44:08.782Z,88.67
2022-11-20T01:45:08.665Z,88.46
2022-11-20T01:46:08.731Z,88.56
2022-11-20T01:47:08.840Z,88.98
2022-11-20T01:48:08.722Z,89.39
2022-11-20T01:49:08.612Z,89.18
2022-11-20T01:50:08.841Z,88.98
2022-11-20T01:51:08.594Z,88.98
2022-11-20T01:52:08.677Z,88.67
2022-11-20T01:53:08.577Z,88.46
2022-11-20T01:54:08.587Z,88.04
2022-11-20T01:55:08.563Z,88.04
2022-11-20T01:56:08.588Z,88.15
2022-11-20T01:57:08.539Z,88.04
2022-11-20T01:58:08.614Z,88.04
2022-11-20T01:59:08.532Z,88.25
2022-11-20T02:00:08.502Z,88.35
2022-11-20T02:01:08.503Z,88.56
2022-11-20T02:02:08.573Z,88.46
2022-11-20T02:03:08.471Z,88.67
2022-11-20T02:04:08.694Z,88.56
2022-11-20T02:05:08.445Z,88.35
2022-11-20T02:06:08.565Z,88.25
2022-11-20T02:07:08.506Z,88.35
2022-11-20T02:08:08.578Z,88.35
2022-11-20T02:09:08.402Z,88.46
2022-11-20T02:10:08.404Z,88.25
2022-11-20T02:11:08.405Z,88.35
2022-11-20T02:12:08.454Z,87.94
2022-11-20T02:13:08.396Z,87.84
2022-11-20T02:14:08.576Z,88.04
2022-11-20T02:15:08.335Z,87.84
2022-11-20T02:16:08.436Z,87.84
2022-11-20T02:17:08.335Z,88.04
2022-11-20T02:18:08.336Z,88.04
2022-11-20T02:19:08.299Z,88.04
2022-11-20T02:20:08.615Z,88.04
2022-11-20T02:21:08.286Z,88.09
2022-11-20T02:22:08.658Z,88.09
2022-11-20T02:23:08.267Z,88.29
2022-11-20T02:24:08.535Z,88.60
2022-11-20T02:25:08.235Z,88.71
2022-11-20T02:26:08.336Z,88.71
2022-11-20T02:27:08.234Z,88.71
2022-11-20T02:28:08.428Z,89.02
2022-11-20T02:29:08.197Z,89.02
2022-11-20T02:30:08.210Z,89.12
2022-11-20T02:31:08.177Z,89.23
2022-11-20T02:32:08.176Z,89.12
2022-11-20T02:33:08.146Z,88.87
2022-11-20T02:34:08.207Z,88.71
2022-11-20T02:35:08.130Z,88.71
2022-11-20T02:36:08.346Z,88.67
2022-11-20T02:37:08.107Z,88.71
2022-11-20T02:38:08.116Z,88.67
2022-11-20T02:39:08.086Z,88.77
2022-11-20T02:40:08.178Z,88.71
2022-11-20T02:41:08.066Z,88.98
2022-11-20T02:42:08.272Z,88.98
2022-11-20T02:43:08.046Z,89.08
2022-11-20T02:44:08.197Z,89.08
2022-11-20T02:45:08.016Z,89.08
2022-11-20T02:46:08.016Z,88.71
2022-11-20T02:47:08.016Z,88.60
2022-11-20T02:48:07.987Z,88.71
2022-11-20T02:49:08.011Z,88.71
2022-11-20T02:50:08.087Z,88.71
2022-11-20T02:51:07.967Z,89.02
2022-11-20T02:52:08.128Z,89.12
2022-11-20T02:53:07.957Z,89.23
2022-11-20T02:54:08.057Z,89.33
2022-11-20T02:55:07.931Z,89.75
2022-11-20T02:56:08.027Z,89.95
2022-11-20T02:57:07.909Z,90.06
2022-11-20T02:58:07.919Z,90.16
2022-11-20T02:59:08.091Z,90.16
2022-11-20T03:00:07.919Z,90.06
2022-11-20T03:01:08.157Z,89.95
2022-11-20T03:02:07.888Z,90.06
2022-11-20T03:03:07.831Z,90.06
2022-11-20T03:04:07.930Z,89.95
2022-11-20T03:05:07.822Z,89.75
2022-11-20T03:06:07.801Z,89.85
2022-11-20T03:07:07.829Z,89.85
2022-11-20T03:08:07.863Z,89.95
2022-11-20T03:09:07.877Z,90.06
2022-11-20T03:10:07.869Z,89.85
2022-11-20T03:11:07.828Z,89.70
2022-11-20T03:12:08.006Z,89.81
2022-11-20T03:13:07.753Z,89.92
2022-11-20T03:14:07.773Z,89.81
2022-11-20T03:15:07.708Z,89.81
2022-11-20T03:16:07.759Z,89.70
2022-11-20T03:17:07.777Z,89.92
2022-11-20T03:18:07.698Z,90.02
2022-11-20T03:19:08.070Z,90.02
2022-11-20T03:20:07.651Z,90.12
2022-11-20T03:21:07.646Z,90.12
2022-11-20T03:22:07.681Z,90.33
2022-11-20T03:23:07.629Z,90.54
2022-11-20T03:24:07.677Z,90.54
2022-11-20T03:25:07.836Z,90.02
2022-11-20T03:26:07.598Z,89.92
2022-11-20T03:27:07.590Z,89.81
2022-11-20T03:28:07.597Z,90.02
2022-11-20T03:29:07.570Z,90.12
2022-11-20T03:30:07.714Z,90.44
2022-11-20T03:31:07.541Z,90.44
2022-11-20T03:32:07.560Z,90.23
2022-11-20T03:33:07.590Z,90.12
2022-11-20T03:34:07.500Z,90.23
2022-11-20T03:35:07.499Z,90.33
2022-11-20T03:36:07.527Z,90.44
2022-11-20T03:37:07.484Z,90.44
2022-11-20T03:38:07.512Z,90.23
2022-11-20T03:39:07.453Z,90.12
2022-11-20T03:40:07.534Z,89.92
2022-11-20T03:41:07.529Z,90.02
2022-11-20T03:42:07.531Z,90.12
2022-11-20T03:43:07.411Z,90.12
2022-11-20T03:44:07.400Z,90.23
2022-11-20T03:45:07.390Z,90.02
2022-11-20T03:46:07.464Z,90.02
2022-11-20T03:47:07.374Z,90.12
2022-11-20T03:48:07.389Z,90.12
2022-11-20T03:49:07.474Z,90.23
2022-11-20T03:50:07.342Z,90.33
2022-11-20T03:51:07.433Z,90.44
2022-11-20T03:52:07.382Z,90.54
2022-11-20T03:53:07.312Z,90.54
2022-11-20T03:54:07.414Z,90.75
2022-11-20T03:55:07.313Z,90.85
2022-11-20T03:56:07.325Z,90.85
2022-11-20T03:57:07.283Z,90.95
2022-11-20T03:58:07.330Z,91.06
2022-11-20T03:59:07.552Z,91.16
2022-11-20T04:00:07.391Z,91.27
2022-11-20T04:01:07.221Z,91.37
2022-11-20T04:02:07.403Z,91.37
2022-11-20T04:03:07.212Z,91.37
2022-11-20T04:04:07.359Z,91.47
2022-11-20T04:05:07.281Z,91.47
2022-11-20T04:06:07.161Z,91.58
2022-11-20T04:07:07.447Z,91.78
2022-11-20T04:08:07.207Z,91.89
2022-11-20T04:09:07.146Z,91.78
2022-11-20T04:10:07.232Z,91.89
2022-11-20T04:11:07.117Z,91.89
2022-11-20T04:12:07.122Z,91.99
2022-11-20T04:13:07.102Z,92.10
2022-11-20T04:14:07.114Z,92.20
2022-11-20T04:15:07.063Z,92.41
2022-11-20T04:16:07.071Z,92.30
2022-11-20T04:17:07.042Z,92.41
2022-11-20T04:18:07.088Z,92.51
2022-11-20T04:19:07.017Z,92.51
2022-11-20T04:20:07.056Z,92.61
2022-11-20T04:21:06.993Z,92.61
2022-11-20T04:22:07.035Z,92.61
2022-11-20T04:23:06.984Z,92.72
2022-11-20T04:24:07.083Z,92.61
2022-11-20T04:25:06.950Z,92.51
2022-11-20T04:26:06.956Z,92.51
2022-11-20T04:27:06.936Z,92.51
2022-11-20T04:28:07.113Z,92.72
2022-11-20T04:29:06.915Z,92.82
2022-11-20T04:30:06.922Z,92.82
2022-11-20T04:31:06.893Z,92.72
2022-11-20T04:32:06.962Z,92.82
2022-11-20T04:33:06.883Z,92.82
2022-11-20T04:34:06.983Z,92.93
2022-11-20T04:35:06.873Z,92.93
2022-11-20T04:36:06.935Z,93.03
2022-11-20T04:37:06.827Z,93.03
2022-11-20T04:38:07.073Z,93.14
2022-11-20T04:39:06.817Z,93.24
2022-11-20T04:40:06.835Z,93.35
2022-11-20T04:41:06.784Z,93.45
2022-11-20T04:42:06.976Z,93.45
2022-11-20T04:43:06.772Z,93.55
2022-11-20T04:44:06.864Z,93.66
2022-11-20T04:45:06.743Z,93.66
2022-11-20T04:46:06.734Z,93.55
2022-11-20T04:47:06.724Z,93.55
2022-11-20T04:48:06.735Z,93.76
2022-11-20T04:49:06.708Z,93.76
2022-11-20T04:50:06.802Z,93.97
2022-11-20T04:51:06.675Z,93.97
2022-11-20T04:52:06.714Z,94.07
2022-11-20T04:53:06.667Z,94.18
2022-11-20T04:54:06.713Z,94.28
2022-11-20T04:55:06.636Z,94.28
2022-11-20T04:56:06.672Z,94.38
2022-11-20T04:57:11.315Z,94.38
2022-11-20T04:58:07.755Z,94.38
2022-11-20T04:59:06.595Z,94.49
2022-11-20T05:00:06.656Z,94.49
2022-11-20T05:01:06.619Z,94.49
2022-11-20T05:02:06.655Z,94.59
2022-11-20T05:03:06.571Z,94.70
2022-11-20T05:04:06.678Z,94.80
2022-11-20T05:05:06.539Z,94.70
2022-11-20T05:06:06.538Z,94.70
2022-11-20T05:07:06.546Z,94.59
2022-11-20T05:08:07.182Z,94.59
2022-11-20T05:09:06.489Z,94.70
2022-11-20T05:10:06.638Z,94.80
2022-11-20T05:11:06.481Z,95.01
2022-11-20T05:12:06.623Z,95.01
2022-11-20T05:13:06.458Z,95.01
2022-11-20T05:14:06.479Z,95.01
2022-11-20T05:15:06.418Z,95.11
2022-11-20T05:16:06.452Z,95.11
2022-11-20T05:17:06.402Z,95.11
2022-11-20T05:18:06.590Z,95.01
2022-11-20T05:19:06.400Z,95.01
2022-11-20T05:20:06.387Z,94.90
2022-11-20T05:21:06.379Z,94.80
2022-11-20T05:22:06.432Z,94.90
2022-11-20T05:23:06.349Z,94.90
2022-11-20T05:24:06.399Z,94.80
2022-11-20T05:25:06.319Z,94.80
2022-11-20T05:26:06.387Z,94.80
2022-11-20T05:27:06.293Z,94.80
2022-11-20T05:28:06.380Z,94.80
2022-11-20T05:29:06.268Z,94.80
2022-11-20T05:30:06.351Z,94.80
2022-11-20T05:31:06.248Z,94.70
2022-11-20T05:32:06.278Z,94.70
2022-11-20T05:33:06.257Z,94.70
2022-11-20T05:34:06.369Z,94.70
2022-11-20T05:35:06.209Z,94.80
2022-11-20T05:36:06.274Z,94.70
2022-11-20T05:37:06.179Z,94.80
2022-11-20T05:38:06.327Z,94.90
2022-11-20T05:39:06.180Z,94.90
2022-11-20T05:40:06.160Z,94.90
2022-11-20T05:41:06.139Z,94.90
2022-11-20T05:42:06.130Z,95.01
2022-11-20T05:43:06.129Z,95.11
2022-11-20T05:44:06.250Z,95.11
2022-11-20T05:45:06.099Z,95.11
2022-11-20T05:46:06.169Z,95.21
2022-11-20T05:47:06.073Z,95.32
2022-11-20T05:48:06.157Z,95.32
2022-11-20T05:49:06.057Z,95.42
2022-11-20T05:50:06.150Z,95.32
2022-11-20T05:51:06.041Z,95.42
2022-11-20T05:52:06.186Z,95.53
2022-11-20T05:53:06.030Z,95.53
2022-11-20T05:54:06.173Z,95.63
2022-11-20T05:55:06.000Z,95.73
2022-11-20T05:56:06.051Z,95.69
2022-11-20T05:57:05.970Z,95.73
2022-11-20T05:58:06.052Z,95.69
2022-11-20T05:59:05.961Z,95.90
2022-11-20T06:00:06.204Z,96.21
2022-11-20T06:01:05.930Z,96.21
2022-11-20T06:02:05.920Z,96.31
2022-11-20T06:03:05.984Z,96.31
2022-11-20T06:04:05.950Z,96.11
2022-11-20T06:05:05.901Z,96.00
2022-11-20T06:06:06.014Z,96.11
2022-11-20T06:07:05.951Z,96.11
2022-11-20T06:08:05.894Z,96.21
2022-11-20T06:09:05.861Z,96.00
2022-11-20T06:10:05.844Z,95.90
2022-11-20T06:11:05.841Z,95.79
2022-11-20T06:12:05.871Z,95.59
2022-11-20T06:13:05.801Z,95.59
2022-11-20T06:14:05.881Z,95.48
2022-11-20T06:15:05.791Z,95.38
2022-11-20T06:16:05.772Z,95.28
2022-11-20T06:17:05.753Z,95.07
2022-11-20T06:18:05.754Z,94.96
2022-11-20T06:19:05.751Z,94.96
2022-11-20T06:20:05.743Z,94.86
2022-11-20T06:21:05.717Z,94.86
2022-11-20T06:22:05.792Z,94.96
2022-11-20T06:23:05.702Z,94.96
2022-11-20T06:24:05.848Z,94.86
2022-11-20T06:25:05.683Z,94.76
2022-11-20T06:26:05.665Z,94.65
2022-11-20T06:27:05.651Z,94.65
2022-11-20T06:28:05.652Z,94.55
2022-11-20T06:29:05.645Z,94.45
2022-11-20T06:30:05.655Z,94.24
2022-11-20T06:31:05.604Z,94.24
2022-11-20T06:32:05.605Z,94.03
2022-11-20T06:33:05.634Z,93.93
2022-11-20T06:34:05.594Z,93.72
2022-11-20T06:35:05.567Z,93.62
2022-11-20T06:36:10.437Z,93.51
2022-11-20T06:37:06.537Z,93.51
2022-11-20T06:38:05.546Z,93.51
2022-11-20T06:39:05.536Z,93.62
2022-11-20T06:40:06.010Z,93.62
2022-11-20T06:41:05.524Z,93.51
2022-11-20T06:42:05.495Z,93.72
2022-11-20T06:43:05.475Z,93.93
2022-11-20T06:44:05.487Z,94.13
2022-11-20T06:45:05.464Z,94.03
2022-11-20T06:46:05.534Z,93.93
2022-11-20T06:47:05.498Z,94.13
2022-11-20T06:48:05.434Z,94.13
2022-11-20T06:49:05.423Z,94.13
2022-11-20T06:50:05.473Z,94.13
2022-11-20T06:51:05.436Z,94.03
2022-11-20T06:52:05.385Z,94.03
2022-11-20T06:53:05.383Z,94.03
2022-11-20T06:54:05.394Z,93.93
2022-11-20T06:55:05.355Z,93.93
2022-11-20T06:56:05.397Z,93.93
2022-11-20T06:57:05.345Z,93.93
2022-11-20T06:58:05.324Z,93.93
2022-11-20T06:59:05.324Z,93.72
2022-11-20T07:00:05.336Z,93.62
2022-11-20T07:01:05.439Z,93.51
2022-11-20T07:02:05.279Z,93.41
2022-11-20T07:03:05.276Z,93.51
2022-11-20T07:04:05.284Z,93.62
2022-11-20T07:05:05.257Z,93.72
2022-11-20T07:06:05.240Z,93.72
2022-11-20T07:07:05.286Z,93.72
2022-11-20T07:08:05.215Z,93.62
2022-11-20T07:09:09.883Z,93.72
2022-11-20T07:10:06.260Z,93.51
2022-11-20T07:11:05.217Z,93.41
2022-11-20T07:12:05.213Z,93.41
2022-11-20T07:13:05.167Z,93.62
2022-11-20T07:14:05.166Z,93.62
2022-11-20T07:15:05.139Z,93.51
2022-11-20T07:16:05.149Z,93.41
2022-11-20T07:17:05.120Z,93.30
2022-11-20T07:18:05.189Z,93.20
2022-11-20T07:19:05.117Z,93.10
2022-11-20T07:20:05.106Z,92.88
2022-11-20T07:21:05.132Z,92.68
2022-11-20T07:22:05.069Z,92.68
2022-11-20T07:23:05.069Z,92.68
2022-11-20T07:24:05.069Z,92.88
2022-11-20T07:25:05.047Z,92.88
2022-11-20T07:26:05.054Z,93.30
2022-11-20T07:27:05.016Z,93.20
2022-11-20T07:28:05.048Z,93.20
2022-11-20T07:29:04.999Z,93.10
2022-11-20T07:30:05.102Z,93.30
2022-11-20T07:31:04.979Z,93.41
2022-11-20T07:32:04.976Z,93.41
2022-11-20T07:33:04.955Z,93.51
2022-11-20T07:34:04.958Z,93.51
2022-11-20T07:35:04.932Z,93.41
2022-11-20T07:36:04.929Z,93.41
2022-11-20T07:37:10.052Z,93.41
2022-11-20T07:38:05.920Z,93.30
2022-11-20T07:39:05.028Z,93.30
2022-11-20T07:40:05.013Z,93.10
2022-11-20T07:41:04.888Z,92.88
2022-11-20T07:42:05.007Z,92.88
2022-11-20T07:43:04.849Z,92.99
2022-11-20T07:44:04.877Z,92.88
2022-11-20T07:45:04.821Z,92.78
2022-11-20T07:46:04.915Z,92.68
2022-11-20T07:47:04.809Z,92.68
2022-11-20T07:48:04.814Z,92.78
2022-11-20T07:49:05.026Z,92.78
2022-11-20T07:50:04.795Z,92.68
2022-11-20T07:51:04.759Z,92.47
2022-11-20T07:52:05.521Z,92.26
2022-11-20T07:53:04.749Z,92.16
2022-11-20T07:54:04.822Z,92.26
2022-11-20T07:55:04.726Z,92.36
2022-11-20T07:56:04.712Z,92.47
2022-11-20T07:57:04.809Z,92.68
2022-11-20T07:58:04.718Z,92.78
2022-11-20T07:59:04.712Z,92.88
2022-11-20T08:00:04.691Z,92.78
2022-11-20T08:01:04.704Z,92.88
2022-11-20T08:02:04.658Z,92.74
2022-11-20T08:03:04.640Z,92.57
2022-11-20T08:04:04.642Z,92.47
2022-11-20T08:05:04.621Z,92.57
2022-11-20T08:06:04.615Z,92.63
2022-11-20T08:07:04.639Z,92.57
2022-11-20T08:08:04.621Z,92.53
2022-11-20T08:09:04.572Z,92.74
2022-11-20T08:10:04.599Z,92.74
2022-11-20T08:11:04.542Z,92.53
2022-11-20T08:12:04.563Z,92.32
2022-11-20T08:13:04.541Z,92.53
2022-11-20T08:14:04.520Z,92.63
2022-11-20T08:15:08.423Z,92.63
2022-11-20T08:16:05.543Z,92.63
2022-11-20T08:17:04.526Z,92.63
2022-11-20T08:18:29.461Z,92.63
2022-11-20T08:19:05.474Z,92.32
2022-11-20T08:20:04.503Z,92.22
2022-11-20T08:21:04.455Z,92.11
2022-11-20T08:22:04.453Z,92.11
2022-11-20T08:23:04.413Z,92.22
2022-11-20T08:24:04.414Z,92.53
2022-11-20T08:25:04.402Z,92.84
2022-11-20T08:26:04.443Z,92.94
2022-11-20T08:27:04.373Z,93.26
2022-11-20T08:28:12.945Z,93.37
2022-11-20T08:29:05.367Z,93.53
2022-11-20T08:30:04.401Z,93.74
2022-11-20T08:31:04.325Z,93.53
2022-11-20T08:32:04.366Z,93.32
2022-11-20T08:33:04.302Z,93.12
2022-11-20T08:34:08.916Z,92.69
2022-11-20T08:35:05.294Z,92.59
2022-11-20T08:36:04.292Z,92.59
2022-11-20T08:37:04.274Z,92.69
2022-11-20T08:38:04.335Z,92.69
2022-11-20T08:39:04.250Z,92.59
2022-11-20T08:40:04.294Z,92.18
2022-11-20T08:41:04.238Z,92.28
2022-11-20T08:42:04.225Z,92.38
2022-11-20T08:43:04.203Z,92.59
2022-11-20T08:44:04.282Z,92.38
2022-11-20T08:45:04.251Z,91.76
2022-11-20T08:46:04.165Z,91.97
2022-11-20T08:47:04.223Z,91.86
2022-11-20T08:48:04.579Z,91.76
2022-11-20T08:49:04.130Z,91.55
2022-11-20T08:50:04.175Z,91.76
2022-11-20T08:51:04.117Z,91.86
2022-11-20T08:52:04.149Z,91.97
2022-11-20T08:53:04.090Z,92.18
2022-11-20T08:54:04.167Z,92.28
2022-11-20T08:55:04.068Z,92.38
2022-11-20T08:56:04.129Z,92.07
2022-11-20T08:57:04.039Z,91.86
2022-11-20T08:58:04.126Z,91.97
2022-11-20T09:00:06.779Z,92.24
2022-11-20T09:01:04.080Z,92.03
2022-11-20T09:02:04.106Z,92.24
2022-11-20T09:03:03.972Z,92.14
2022-11-20T09:04:03.994Z,92.03
2022-11-20T09:05:03.971Z,92.14
2022-11-20T09:06:03.947Z,92.14
2022-11-20T09:07:03.975Z,92.35
2022-11-20T09:08:03.946Z,92.14
2022-11-20T09:09:06.932Z,92.24
2022-11-20T09:10:23.157Z,92.55
2022-11-20T09:11:04.898Z,92.66
2022-11-20T09:12:03.878Z,92.97
2022-11-20T09:13:03.862Z,92.86
2022-11-20T09:14:03.948Z,92.35
2022-11-20T09:15:03.852Z,92.14
2022-11-20T09:16:03.898Z,92.24
2022-11-20T09:17:03.831Z,92.41
2022-11-20T09:18:03.849Z,92.10
2022-11-20T09:20:04.892Z,91.47
2022-11-20T09:21:03.796Z,91.58
2022-11-20T09:22:03.801Z,91.37
2022-11-20T09:23:03.757Z,91.27
2022-11-20T09:24:03.767Z,90.75
2022-11-20T09:25:03.739Z,90.95
2022-11-20T09:26:03.734Z,90.75
2022-11-20T09:27:03.710Z,90.64
2022-11-20T09:28:03.717Z,90.44
2022-11-20T09:29:03.690Z,90.44
2022-11-20T09:30:03.700Z,90.64
2022-11-20T09:31:03.661Z,90.75
2022-11-20T09:32:03.673Z,90.75
2022-11-20T09:33:03.640Z,90.64
2022-11-20T09:34:03.974Z,90.50
2022-11-20T09:35:03.635Z,89.98
2022-11-20T09:36:03.798Z,90.08
2022-11-20T09:37:06.408Z,89.56
2022-11-20T09:38:03.661Z,89.56
2022-11-20T09:39:03.572Z,89.67
2022-11-20T09:40:03.583Z,89.52
2022-11-20T09:41:03.560Z,89.31
2022-11-20T09:42:03.841Z,89.52
2022-11-20T09:43:03.532Z,89.11
2022-11-20T09:44:03.901Z,88.48
2022-11-20T09:45:03.533Z,88.45
2022-11-20T09:46:03.791Z,88.76
2022-11-20T09:47:03.501Z,88.55
2022-11-20T09:48:03.902Z,87.72
2022-11-20T09:49:03.473Z,88.13
2022-11-20T09:50:03.502Z,88.03
2022-11-20T09:51:03.444Z,88.24
2022-11-20T09:52:03.445Z,88.20
2022-11-20T09:53:03.422Z,88.40
2022-11-20T09:54:03.487Z,88.20
2022-11-20T09:55:03.413Z,88.20
2022-11-20T09:56:03.433Z,87.85
2022-11-20T09:57:03.400Z,86.85
2022-11-20T09:58:03.576Z,86.75
2022-11-20T09:59:03.365Z,87.68
2022-11-20T10:00:03.486Z,87.99
2022-11-20T10:01:03.399Z,87.57
2022-11-20T10:02:03.333Z,87.37
2022-11-20T10:03:03.324Z,86.96
2022-11-20T10:04:03.507Z,86.75
2022-11-20T10:05:03.306Z,86.96
2022-11-20T10:06:03.536Z,86.44
2022-11-20T10:08:04.328Z,87.78
2022-11-20T10:09:03.245Z,86.96
2022-11-20T10:10:03.301Z,87.23
2022-11-20T10:11:03.255Z,87.16
2022-11-20T10:12:03.299Z,86.96
2022-11-20T10:13:03.215Z,86.54
2022-11-20T10:14:03.365Z,86.44
2022-11-20T10:15:03.188Z,86.75
2022-11-20T10:16:03.208Z,86.85
2022-11-20T10:17:03.172Z,87.47
2022-11-20T10:18:03.197Z,87.43
2022-11-20T10:19:03.149Z,86.81
2022-11-20T10:20:03.153Z,86.71
2022-11-20T10:21:03.160Z,86.85
2022-11-20T10:22:03.344Z,87.16
2022-11-20T10:23:03.107Z,86.85
2022-11-20T10:24:03.257Z,87.27
2022-11-20T10:25:03.076Z,88.20
2022-11-20T10:26:03.069Z,87.64
2022-11-20T10:27:03.059Z,87.64
2022-11-20T10:28:03.349Z,87.23
2022-11-20T10:29:07.545Z,87.02
2022-11-20T10:30:04.040Z,87.12
2022-11-20T10:31:03.039Z,87.02
2022-11-20T10:32:03.220Z,87.12
2022-11-20T10:33:02.989Z,87.33
2022-11-20T10:34:12.007Z,87.12
2022-11-20T10:35:03.970Z,86.50
2022-11-20T10:36:02.992Z,86.60
2022-11-20T10:37:02.940Z,86.91
2022-11-20T10:38:02.949Z,86.50
2022-11-20T10:39:02.940Z,86.60
2022-11-20T10:40:02.918Z,86.50
2022-11-20T10:41:02.930Z,86.91
2022-11-20T10:42:02.897Z,86.09
2022-11-20T10:43:02.895Z,85.99
2022-11-20T10:44:02.973Z,86.19
2022-11-20T10:45:06.155Z,86.09
2022-11-20T10:46:02.985Z,85.99
2022-11-20T10:47:02.851Z,85.68
2022-11-20T10:48:02.993Z,85.78
2022-11-20T10:49:02.832Z,86.19
2022-11-20T10:50:02.877Z,86.60
2022-11-20T10:51:02.816Z,86.71
2022-11-20T10:52:02.772Z,87.33
2022-11-20T10:53:02.772Z,86.71
2022-11-20T10:54:02.766Z,87.02
2022-11-20T10:55:02.752Z,86.91
2022-11-20T10:56:02.885Z,86.91
2022-11-20T10:57:02.723Z,87.02
2022-11-20T10:58:02.716Z,86.60
2022-11-20T10:59:02.706Z,87.02
2022-11-20T11:00:02.757Z,87.23
2022-11-20T11:01:02.777Z,86.98
2022-11-20T11:02:03.427Z,86.98
2022-11-20T11:03:02.666Z,86.81
2022-11-20T11:04:02.836Z,86.71
2022-11-20T11:05:02.653Z,86.81
2022-11-20T11:06:02.684Z,86.81
2022-11-20T11:07:02.694Z,86.98
2022-11-20T11:08:02.632Z,87.18
2022-11-20T11:09:02.613Z,87.39
2022-11-20T11:10:02.629Z,87.39
2022-11-20T11:11:02.600Z,87.49
2022-11-20T11:12:06.952Z,87.91
2022-11-20T11:13:02.555Z,87.70
2022-11-20T11:14:02.585Z,87.70
2022-11-20T11:15:02.536Z,87.49
2022-11-20T11:16:02.534Z,87.08
2022-11-20T11:17:02.509Z,87.08
2022-11-20T11:18:02.506Z,86.57
2022-11-20T11:19:02.483Z,87.08
2022-11-20T11:20:02.537Z,86.67
2022-11-20T11:21:02.478Z,87.08
2022-11-20T11:22:02.602Z,87.04
2022-11-20T11:23:02.444Z,86.52
2022-11-20T11:24:19.645Z,86.21
2022-11-20T11:25:03.437Z,86.52
2022-11-20T11:26:02.427Z,86.21
2022-11-20T11:27:02.406Z,86.11
2022-11-20T11:28:02.413Z,85.60
2022-11-20T11:29:02.386Z,86.01
2022-11-20T11:30:02.429Z,86.52
2022-11-20T11:31:02.365Z,86.63
2022-11-20T11:32:02.410Z,86.73
2022-11-20T11:33:02.339Z,86.52
2022-11-20T11:34:02.457Z,86.11
2022-11-20T11:35:02.310Z,86.01
2022-11-20T11:36:02.376Z,86.11
2022-11-20T11:37:02.279Z,85.91
2022-11-20T11:38:02.288Z,86.01
2022-11-20T11:39:02.268Z,86.11
2022-11-20T11:40:23.396Z,86.11
2022-11-20T11:41:03.260Z,86.11
2022-11-20T11:42:02.301Z,86.32
2022-11-20T11:43:02.219Z,86.52
2022-11-20T11:44:02.315Z,86.63
2022-11-20T11:45:02.199Z,86.52
2022-11-20T11:46:02.306Z,86.63
2022-11-20T11:47:02.222Z,86.83
2022-11-20T11:48:02.234Z,86.63
2022-11-20T11:49:02.153Z,86.83
2022-11-20T11:50:02.215Z,86.94
2022-11-20T11:51:02.131Z,86.94
2022-11-20T11:52:02.238Z,86.83
2022-11-20T11:53:02.114Z,87.15
2022-11-20T11:54:02.139Z,87.35
2022-11-20T11:55:05.905Z,87.04
2022-11-20T11:56:03.081Z,87.15
2022-11-20T11:57:02.087Z,87.25
2022-11-20T11:58:02.082Z,87.56
2022-11-20T11:59:02.041Z,87.35
2022-11-20T12:00:02.216Z,87.46
2022-11-20T12:01:02.024Z,87.25
2022-11-20T12:02:02.173Z,87.35
2022-11-20T12:03:02.005Z,87.46
2022-11-20T12:04:02.141Z,87.46
2022-11-20T12:05:01.982Z,86.83
2022-11-20T12:06:02.014Z,86.73
2022-11-20T12:07:13.205Z,86.79
2022-11-20T12:08:05.894Z,86.90
2022-11-20T12:09:02.934Z,86.90
2022-11-20T12:10:01.935Z,86.59
2022-11-20T12:11:01.914Z,86.21
2022-11-20T12:12:01.913Z,86.73
2022-11-20T12:13:01.890Z,87.00
2022-11-20T12:14:01.986Z,86.69
2022-11-20T12:15:01.875Z,86.18
2022-11-20T12:16:01.857Z,86.28
2022-11-20T12:17:01.867Z,86.38
2022-11-20T12:18:01.847Z,86.59
2022-11-20T12:19:01.835Z,86.69
2022-11-20T12:20:01.814Z,86.59
2022-11-20T12:21:01.815Z,86.28
2022-11-20T12:22:04.892Z,86.49
2022-11-20T12:23:01.791Z,86.79
2022-11-20T12:24:01.775Z,86.90
2022-11-20T12:25:01.778Z,86.49
2022-11-20T12:26:01.795Z,86.34
2022-11-20T12:27:01.777Z,86.34
2022-11-20T12:28:01.786Z,86.24
2022-11-20T12:29:01.786Z,86.65
2022-11-20T12:30:01.719Z,86.65
2022-11-20T12:31:01.706Z,86.24
2022-11-20T12:32:01.813Z,86.34
2022-11-20T12:33:01.669Z,86.24
2022-11-20T12:34:01.711Z,86.03
2022-11-20T12:35:01.656Z,86.44
2022-11-20T12:36:01.647Z,87.48
2022-11-20T12:37:01.638Z,86.86
2022-11-20T12:38:01.619Z,86.55
2022-11-20T12:39:01.608Z,86.86
2022-11-20T12:40:01.603Z,87.27
2022-11-20T12:41:01.588Z,87.13
2022-11-20T12:42:01.588Z,86.44
2022-11-20T12:43:01.560Z,86.34
2022-11-20T12:44:01.561Z,86.44
2022-11-20T12:45:01.543Z,86.44
2022-11-20T12:46:01.537Z,86.44
2022-11-20T12:47:01.536Z,86.44
2022-11-20T12:48:01.549Z,86.44
2022-11-20T12:49:01.612Z,86.65
2022-11-20T12:50:01.494Z,87.13
2022-11-20T12:51:14.671Z,86.82
2022-11-20T12:52:02.506Z,86.51
2022-11-20T12:53:01.450Z,86.41
2022-11-20T12:54:01.525Z,86.61
2022-11-20T12:55:01.431Z,86.71